Main page
METAR-TAF:

METAR-TAF

Airports :

Ben Gurion Airport

Tel Aviv / Ben Gurion, Israel

latitude: 32-00N, longitude: 034-54E, elevation: 40 m

Current weather observation

The report was made 6 minutes ago, at 14:50 UTC
Wind 7 kt from the North/Northwest
Temperature 33°C
Humidity 23%
Pressure 1011 hPa
Visibility 10 km or more
no clouds below 1500 m and no cumulonimbus

METAR: LLBG 211450Z 34007KT CAVOK 33/09 Q1011 NOSIG

Time: 17:56 (14:56 UTC)

Forecast

The report was made 3 hours and 46 minutes ago, at 11:10 UTC
Forecast valid from 21 at 12 UTC to 22 at 12 UTC
Wind 10 kt from the Northwest
Visibility 10 km or more
no clouds below 1500 m and no cumulonimbus
Becoming
from 21 at 16 UTC to 21 at 18 UTC
Wind 5 kt from the Northeast
Becoming
from 21 at 20 UTC to 21 at 22 UTC
Wind 3 kt from variable directions
Becoming
from 22 at 07 UTC to 22 at 09 UTC
Wind 8 kt from the West/Northwest

TAF: LLBG 211110Z 2112/2212 32010KT CAVOK BECMG 2116/2118 04005KT BECMG 2120/2122 VRB03KT BECMG 2207/2209 30008KT TX34/2112Z TN20/2203Z

Weather observations and forecasts of more than 4000 airports (METAR and TAF reports).

The available stations are represented by yellow and red dots on the map.

Hover mouse over dot to see the name of the station.

Then click to see weather observations and forecasts.

To change the map : click on the green buttons with a black cross to zoom in, on the green button with a dash to zoom out, or on the green arrows for adjacent maps.


METAR-TAF: